sensor_id;sensor_type;location;lat;lon;timestamp;P1;durP1;ratioP1;P2;durP2;ratioP2
11572;SDS011;5842;52.426;4.886;2023-03-23T00:02:19;11.67;;;6.90;;
11572;SDS011;5842;52.426;4.886;2023-03-23T00:04:52;11.73;;;7.30;;
11572;SDS011;5842;52.426;4.886;2023-03-23T00:07:20;11.13;;;6.07;;
11572;SDS011;5842;52.426;4.886;2023-03-23T00:09:48;7.97;;;6.10;;
11572;SDS011;5842;52.426;4.886;2023-03-23T00:12:19;9.93;;;6.37;;
11572;SDS011;5842;52.426;4.886;2023-03-23T00:14:59;10.83;;;6.50;;
11572;SDS011;5842;52.426;4.886;2023-03-23T00:17:27;8.67;;;5.70;;
11572;SDS011;5842;52.426;4.886;2023-03-23T00:19:55;8.90;;;5.53;;
11572;SDS011;5842;52.426;4.886;2023-03-23T00:22:22;8.73;;;5.60;;
11572;SDS011;5842;52.426;4.886;2023-03-23T00:24:50;8.33;;;5.37;;
11572;SDS011;5842;52.426;4.886;2023-03-23T00:27:18;11.87;;;5.90;;
11572;SDS011;5842;52.426;4.886;2023-03-23T00:29:47;8.50;;;5.67;;
11572;SDS011;5842;52.426;4.886;2023-03-23T00:32:19;9.17;;;5.30;;
11572;SDS011;5842;52.426;4.886;2023-03-23T00:34:53;10.20;;;5.30;;
11572;SDS011;5842;52.426;4.886;2023-03-23T00:37:21;9.03;;;4.47;;
11572;SDS011;5842;52.426;4.886;2023-03-23T00:39:49;11.37;;;5.63;;
11572;SDS011;5842;52.426;4.886;2023-03-23T00:42:22;8.10;;;4.70;;
11572;SDS011;5842;52.426;4.886;2023-03-23T00:44:53;12.37;;;5.30;;
11572;SDS011;5842;52.426;4.886;2023-03-23T00:47:26;9.90;;;4.63;;
11572;SDS011;5842;52.426;4.886;2023-03-23T00:49:56;8.70;;;4.60;;
11572;SDS011;5842;52.426;4.886;2023-03-23T00:52:23;10.43;;;4.87;;
11572;SDS011;5842;52.426;4.886;2023-03-23T00:54:51;8.23;;;4.17;;
11572;SDS011;5842;52.426;4.886;2023-03-23T00:57:18;12.53;;;4.80;;
11572;SDS011;5842;52.426;4.886;2023-03-23T00:59:49;7.53;;;4.37;;
11572;SDS011;5842;52.426;4.886;2023-03-23T01:02:16;8.17;;;4.27;;
11572;SDS011;5842;52.426;4.886;2023-03-23T01:04:46;7.50;;;4.40;;
11572;SDS011;5842;52.426;4.886;2023-03-23T01:07:17;7.27;;;4.33;;
11572;SDS011;5842;52.426;4.886;2023-03-23T01:09:44;7.33;;;4.20;;
11572;SDS011;5842;52.426;4.886;2023-03-23T01:12:12;6.40;;;4.03;;
11572;SDS011;5842;52.426;4.886;2023-03-23T01:14:39;7.13;;;4.03;;
11572;SDS011;5842;52.426;4.886;2023-03-23T01:17:07;9.47;;;4.73;;
11572;SDS011;5842;52.426;4.886;2023-03-23T01:19:34;8.27;;;4.57;;
11572;SDS011;5842;52.426;4.886;2023-03-23T01:22:04;8.67;;;4.33;;
11572;SDS011;5842;52.426;4.886;2023-03-23T01:24:31;9.93;;;5.13;;
11572;SDS011;5842;52.426;4.886;2023-03-23T01:26:58;10.13;;;4.70;;
11572;SDS011;5842;52.426;4.886;2023-03-23T01:29:31;9.03;;;4.07;;
11572;SDS011;5842;52.426;4.886;2023-03-23T01:31:58;8.57;;;4.00;;
11572;SDS011;5842;52.426;4.886;2023-03-23T01:34:26;6.97;;;4.20;;
11572;SDS011;5842;52.426;4.886;2023-03-23T01:36:53;8.83;;;3.90;;
11572;SDS011;5842;52.426;4.886;2023-03-23T01:39:22;6.87;;;3.70;;
11572;SDS011;5842;52.426;4.886;2023-03-23T01:41:50;7.33;;;3.47;;
11572;SDS011;5842;52.426;4.886;2023-03-23T01:47:04;8.20;;;3.63;;
11572;SDS011;5842;52.426;4.886;2023-03-23T01:49:35;6.43;;;3.17;;
11572;SDS011;5842;52.426;4.886;2023-03-23T01:52:04;7.57;;;3.50;;
11572;SDS011;5842;52.426;4.886;2023-03-23T01:54:34;6.27;;;3.67;;
11572;SDS011;5842;52.426;4.886;2023-03-23T01:57:04;6.60;;;3.70;;
11572;SDS011;5842;52.426;4.886;2023-03-23T01:59:32;6.53;;;3.50;;
11572;SDS011;5842;52.426;4.886;2023-03-23T02:02:01;7.47;;;3.87;;
11572;SDS011;5842;52.426;4.886;2023-03-23T02:04:29;9.17;;;3.73;;
11572;SDS011;5842;52.426;4.886;2023-03-23T02:06:57;7.20;;;3.37;;
11572;SDS011;5842;52.426;4.886;2023-03-23T02:09:25;9.37;;;3.57;;
11572;SDS011;5842;52.426;4.886;2023-03-23T02:11:54;5.33;;;3.37;;
11572;SDS011;5842;52.426;4.886;2023-03-23T02:14:22;5.93;;;3.33;;
11572;SDS011;5842;52.426;4.886;2023-03-23T02:16:55;7.13;;;3.43;;
11572;SDS011;5842;52.426;4.886;2023-03-23T02:19:34;7.00;;;3.73;;
11572;SDS011;5842;52.426;4.886;2023-03-23T02:22:22;7.20;;;3.53;;
11572;SDS011;5842;52.426;4.886;2023-03-23T02:25:09;6.00;;;3.43;;
11572;SDS011;5842;52.426;4.886;2023-03-23T02:28:07;5.40;;;3.20;;
11572;SDS011;5842;52.426;4.886;2023-03-23T02:30:43;6.43;;;3.97;;
11572;SDS011;5842;52.426;4.886;2023-03-23T02:33:24;7.57;;;3.77;;
11572;SDS011;5842;52.426;4.886;2023-03-23T02:35:56;10.50;;;4.13;;
11572;SDS011;5842;52.426;4.886;2023-03-23T02:38:26;7.33;;;3.67;;
11572;SDS011;5842;52.426;4.886;2023-03-23T02:40:54;7.67;;;3.70;;
11572;SDS011;5842;52.426;4.886;2023-03-23T02:43:24;7.30;;;3.30;;
11572;SDS011;5842;52.426;4.886;2023-03-23T02:45:52;4.57;;;3.00;;
11572;SDS011;5842;52.426;4.886;2023-03-23T02:48:23;5.63;;;3.20;;
11572;SDS011;5842;52.426;4.886;2023-03-23T02:50:51;7.53;;;3.47;;
11572;SDS011;5842;52.426;4.886;2023-03-23T02:53:20;4.60;;;3.23;;
11572;SDS011;5842;52.426;4.886;2023-03-23T02:55:49;6.07;;;3.30;;
11572;SDS011;5842;52.426;4.886;2023-03-23T02:58:21;5.70;;;3.23;;
11572;SDS011;5842;52.426;4.886;2023-03-23T03:00:49;8.53;;;3.40;;
11572;SDS011;5842;52.426;4.886;2023-03-23T03:03:17;5.67;;;3.10;;
11572;SDS011;5842;52.426;4.886;2023-03-23T03:05:51;7.13;;;3.63;;
11572;SDS011;5842;52.426;4.886;2023-03-23T03:08:24;7.23;;;3.57;;
11572;SDS011;5842;52.426;4.886;2023-03-23T03:10:57;9.27;;;4.00;;
11572;SDS011;5842;52.426;4.886;2023-03-23T03:13:29;9.67;;;4.37;;
11572;SDS011;5842;52.426;4.886;2023-03-23T03:15:59;12.67;;;4.43;;
11572;SDS011;5842;52.426;4.886;2023-03-23T03:18:30;8.70;;;4.20;;
11572;SDS011;5842;52.426;4.886;2023-03-23T03:21:02;10.23;;;4.43;;
11572;SDS011;5842;52.426;4.886;2023-03-23T03:23:31;12.93;;;4.93;;
11572;SDS011;5842;52.426;4.886;2023-03-23T03:26:00;10.10;;;4.07;;
11572;SDS011;5842;52.426;4.886;2023-03-23T03:28:30;14.67;;;4.70;;
11572;SDS011;5842;52.426;4.886;2023-03-23T03:30:58;11.70;;;4.90;;
11572;SDS011;5842;52.426;4.886;2023-03-23T03:33:28;10.70;;;5.30;;
11572;SDS011;5842;52.426;4.886;2023-03-23T03:35:59;8.77;;;4.50;;
11572;SDS011;5842;52.426;4.886;2023-03-23T03:38:29;11.77;;;4.43;;
11572;SDS011;5842;52.426;4.886;2023-03-23T03:40:57;7.97;;;4.03;;
11572;SDS011;5842;52.426;4.886;2023-03-23T03:43:24;9.00;;;4.20;;
11572;SDS011;5842;52.426;4.886;2023-03-23T03:45:51;13.07;;;4.00;;
11572;SDS011;5842;52.426;4.886;2023-03-23T03:48:19;11.07;;;3.27;;
11572;SDS011;5842;52.426;4.886;2023-03-23T03:50:46;14.27;;;3.30;;
11572;SDS011;5842;52.426;4.886;2023-03-23T03:53:14;9.93;;;3.53;;
11572;SDS011;5842;52.426;4.886;2023-03-23T03:55:43;15.40;;;3.37;;
11572;SDS011;5842;52.426;4.886;2023-03-23T03:58:13;12.93;;;3.20;;
11572;SDS011;5842;52.426;4.886;2023-03-23T04:00:41;12.90;;;3.97;;
11572;SDS011;5842;52.426;4.886;2023-03-23T04:03:13;15.60;;;3.70;;
11572;SDS011;5842;52.426;4.886;2023-03-23T04:05:41;10.07;;;3.13;;
11572;SDS011;5842;52.426;4.886;2023-03-23T04:08:09;11.63;;;3.43;;
11572;SDS011;5842;52.426;4.886;2023-03-23T04:10:37;15.27;;;3.83;;
11572;SDS011;5842;52.426;4.886;2023-03-23T04:13:06;10.67;;;3.10;;
11572;SDS011;5842;52.426;4.886;2023-03-23T04:15:33;13.33;;;3.73;;
11572;SDS011;5842;52.426;4.886;2023-03-23T04:18:00;11.63;;;3.30;;
11572;SDS011;5842;52.426;4.886;2023-03-23T04:20:28;11.10;;;3.40;;
11572;SDS011;5842;52.426;4.886;2023-03-23T04:22:56;11.87;;;3.13;;
11572;SDS011;5842;52.426;4.886;2023-03-23T04:25:25;9.10;;;3.50;;
11572;SDS011;5842;52.426;4.886;2023-03-23T04:27:55;11.37;;;3.50;;
11572;SDS011;5842;52.426;4.886;2023-03-23T04:30:25;11.47;;;3.73;;
11572;SDS011;5842;52.426;4.886;2023-03-23T04:32:52;12.70;;;4.10;;
11572;SDS011;5842;52.426;4.886;2023-03-23T04:35:26;12.33;;;3.63;;
11572;SDS011;5842;52.426;4.886;2023-03-23T04:37:54;14.97;;;4.13;;
11572;SDS011;5842;52.426;4.886;2023-03-23T04:40:22;15.00;;;4.10;;
11572;SDS011;5842;52.426;4.886;2023-03-23T04:42:50;13.00;;;4.27;;
11572;SDS011;5842;52.426;4.886;2023-03-23T04:45:22;17.57;;;4.60;;
11572;SDS011;5842;52.426;4.886;2023-03-23T04:47:51;10.43;;;3.60;;
11572;SDS011;5842;52.426;4.886;2023-03-23T04:50:23;15.33;;;4.03;;
11572;SDS011;5842;52.426;4.886;2023-03-23T04:52:51;11.03;;;3.10;;
11572;SDS011;5842;52.426;4.886;2023-03-23T04:55:23;12.50;;;4.07;;
11572;SDS011;5842;52.426;4.886;2023-03-23T04:57:50;15.10;;;3.40;;
11572;SDS011;5842;52.426;4.886;2023-03-23T05:00:18;17.07;;;4.13;;
11572;SDS011;5842;52.426;4.886;2023-03-23T05:02:46;16.77;;;3.87;;
11572;SDS011;5842;52.426;4.886;2023-03-23T05:05:20;18.10;;;4.13;;
11572;SDS011;5842;52.426;4.886;2023-03-23T05:07:47;17.03;;;4.20;;
11572;SDS011;5842;52.426;4.886;2023-03-23T05:10:15;20.10;;;4.57;;
11572;SDS011;5842;52.426;4.886;2023-03-23T05:12:43;22.47;;;4.43;;
11572;SDS011;5842;52.426;4.886;2023-03-23T05:15:10;27.50;;;4.93;;
11572;SDS011;5842;52.426;4.886;2023-03-23T05:17:38;22.90;;;4.83;;
11572;SDS011;5842;52.426;4.886;2023-03-23T05:20:09;18.97;;;4.40;;
11572;SDS011;5842;52.426;4.886;2023-03-23T05:22:39;18.87;;;4.40;;
11572;SDS011;5842;52.426;4.886;2023-03-23T05:25:07;17.80;;;4.10;;
11572;SDS011;5842;52.426;4.886;2023-03-23T05:27:35;23.50;;;4.53;;
11572;SDS011;5842;52.426;4.886;2023-03-23T05:30:03;20.27;;;4.50;;
11572;SDS011;5842;52.426;4.886;2023-03-23T05:32:31;23.23;;;4.57;;
11572;SDS011;5842;52.426;4.886;2023-03-23T05:34:59;19.60;;;4.43;;
11572;SDS011;5842;52.426;4.886;2023-03-23T05:37:28;19.10;;;4.37;;
11572;SDS011;5842;52.426;4.886;2023-03-23T05:39:58;18.00;;;4.80;;
11572;SDS011;5842;52.426;4.886;2023-03-23T05:42:30;16.10;;;3.90;;
11572;SDS011;5842;52.426;4.886;2023-03-23T05:44:57;18.57;;;4.57;;
11572;SDS011;5842;52.426;4.886;2023-03-23T05:47:25;18.20;;;3.97;;
11572;SDS011;5842;52.426;4.886;2023-03-23T05:49:53;21.67;;;4.80;;
11572;SDS011;5842;52.426;4.886;2023-03-23T05:52:20;19.90;;;5.07;;
11572;SDS011;5842;52.426;4.886;2023-03-23T05:54:49;19.07;;;4.53;;
11572;SDS011;5842;52.426;4.886;2023-03-23T05:57:18;20.33;;;5.10;;
11572;SDS011;5842;52.426;4.886;2023-03-23T05:59:46;22.80;;;5.37;;
11572;SDS011;5842;52.426;4.886;2023-03-23T06:02:14;23.77;;;4.90;;
11572;SDS011;5842;52.426;4.886;2023-03-23T06:04:41;25.20;;;5.20;;
11572;SDS011;5842;52.426;4.886;2023-03-23T06:07:10;21.77;;;4.83;;
11572;SDS011;5842;52.426;4.886;2023-03-23T06:09:40;22.43;;;4.33;;
11572;SDS011;5842;52.426;4.886;2023-03-23T06:12:08;21.23;;;4.70;;
11572;SDS011;5842;52.426;4.886;2023-03-23T06:14:39;27.53;;;5.63;;
11572;SDS011;5842;52.426;4.886;2023-03-23T06:17:07;26.30;;;5.33;;
11572;SDS011;5842;52.426;4.886;2023-03-23T06:19:37;23.23;;;5.07;;
11572;SDS011;5842;52.426;4.886;2023-03-23T06:22:05;23.93;;;5.10;;
11572;SDS011;5842;52.426;4.886;2023-03-23T06:24:33;21.53;;;5.03;;
11572;SDS011;5842;52.426;4.886;2023-03-23T06:27:01;18.23;;;5.03;;
11572;SDS011;5842;52.426;4.886;2023-03-23T06:29:28;18.70;;;5.17;;
11572;SDS011;5842;52.426;4.886;2023-03-23T06:31:58;24.80;;;5.17;;
11572;SDS011;5842;52.426;4.886;2023-03-23T06:34:27;20.57;;;5.50;;
11572;SDS011;5842;52.426;4.886;2023-03-23T06:36:54;19.47;;;5.03;;
11572;SDS011;5842;52.426;4.886;2023-03-23T06:39:22;20.50;;;4.93;;
11572;SDS011;5842;52.426;4.886;2023-03-23T06:41:49;27.90;;;5.57;;
11572;SDS011;5842;52.426;4.886;2023-03-23T06:44:17;24.63;;;4.93;;
11572;SDS011;5842;52.426;4.886;2023-03-23T06:46:44;24.70;;;5.10;;
11572;SDS011;5842;52.426;4.886;2023-03-23T06:49:15;23.90;;;5.10;;
11572;SDS011;5842;52.426;4.886;2023-03-23T06:51:42;20.33;;;4.47;;
11572;SDS011;5842;52.426;4.886;2023-03-23T06:54:10;31.07;;;5.63;;
11572;SDS011;5842;52.426;4.886;2023-03-23T06:56:38;23.77;;;4.90;;
11572;SDS011;5842;52.426;4.886;2023-03-23T06:59:05;27.33;;;5.33;;
11572;SDS011;5842;52.426;4.886;2023-03-23T07:01:33;26.90;;;5.63;;
11572;SDS011;5842;52.426;4.886;2023-03-23T07:04:01;27.53;;;5.30;;
11572;SDS011;5842;52.426;4.886;2023-03-23T07:06:30;21.00;;;4.73;;
11572;SDS011;5842;52.426;4.886;2023-03-23T07:08:57;19.37;;;4.80;;
11572;SDS011;5842;52.426;4.886;2023-03-23T07:11:25;31.37;;;5.70;;
11572;SDS011;5842;52.426;4.886;2023-03-23T07:13:53;19.73;;;4.63;;
11572;SDS011;5842;52.426;4.886;2023-03-23T07:16:21;26.70;;;5.10;;
11572;SDS011;5842;52.426;4.886;2023-03-23T07:18:49;24.43;;;5.53;;
11572;SDS011;5842;52.426;4.886;2023-03-23T07:38:11;26.27;;;5.37;;
11572;SDS011;5842;52.426;4.886;2023-03-23T07:40:38;21.63;;;4.47;;
11572;SDS011;5842;52.426;4.886;2023-03-23T07:43:06;19.67;;;4.83;;
11572;SDS011;5842;52.426;4.886;2023-03-23T07:45:33;19.43;;;4.67;;
11572;SDS011;5842;52.426;4.886;2023-03-23T07:48:01;18.17;;;4.30;;
11572;SDS011;5842;52.426;4.886;2023-03-23T07:50:28;20.30;;;4.17;;
11572;SDS011;5842;52.426;4.886;2023-03-23T07:52:57;15.13;;;4.30;;
11572;SDS011;5842;52.426;4.886;2023-03-23T07:55:27;16.93;;;3.83;;
11572;SDS011;5842;52.426;4.886;2023-03-23T07:57:54;12.07;;;3.97;;
11572;SDS011;5842;52.426;4.886;2023-03-23T08:00:22;17.43;;;4.13;;
11572;SDS011;5842;52.426;4.886;2023-03-23T08:02:51;14.33;;;4.40;;
11572;SDS011;5842;52.426;4.886;2023-03-23T08:05:20;14.50;;;4.47;;
11572;SDS011;5842;52.426;4.886;2023-03-23T08:07:48;11.50;;;3.97;;
11572;SDS011;5842;52.426;4.886;2023-03-23T08:10:17;14.37;;;3.80;;
11572;SDS011;5842;52.426;4.886;2023-03-23T08:12:46;12.20;;;4.17;;
11572;SDS011;5842;52.426;4.886;2023-03-23T08:15:13;13.13;;;4.33;;
11572;SDS011;5842;52.426;4.886;2023-03-23T08:17:41;14.03;;;3.50;;
11572;SDS011;5842;52.426;4.886;2023-03-23T08:20:10;11.83;;;3.37;;
11572;SDS011;5842;52.426;4.886;2023-03-23T08:22:39;11.70;;;3.90;;
11572;SDS011;5842;52.426;4.886;2023-03-23T08:25:07;9.90;;;3.17;;
11572;SDS011;5842;52.426;4.886;2023-03-23T08:27:35;11.50;;;3.40;;
11572;SDS011;5842;52.426;4.886;2023-03-23T08:30:04;10.13;;;3.77;;
11572;SDS011;5842;52.426;4.886;2023-03-23T08:32:32;14.03;;;3.70;;
11572;SDS011;5842;52.426;4.886;2023-03-23T08:35:01;12.80;;;3.70;;
11572;SDS011;5842;52.426;4.886;2023-03-23T08:37:29;13.37;;;3.73;;
11572;SDS011;5842;52.426;4.886;2023-03-23T08:39:56;8.60;;;3.43;;
11572;SDS011;5842;52.426;4.886;2023-03-23T08:42:24;12.97;;;5.27;;
11572;SDS011;5842;52.426;4.886;2023-03-23T08:44:51;10.20;;;2.90;;
11572;SDS011;5842;52.426;4.886;2023-03-23T08:47:21;12.23;;;3.33;;
11572;SDS011;5842;52.426;4.886;2023-03-23T08:49:48;8.37;;;2.83;;
11572;SDS011;5842;52.426;4.886;2023-03-23T08:52:19;12.83;;;3.50;;
11572;SDS011;5842;52.426;4.886;2023-03-23T08:54:46;10.33;;;3.17;;
11572;SDS011;5842;52.426;4.886;2023-03-23T08:57:14;10.07;;;2.87;;
11572;SDS011;5842;52.426;4.886;2023-03-23T08:59:43;10.03;;;2.87;;
11572;SDS011;5842;52.426;4.886;2023-03-23T09:02:11;11.30;;;3.60;;
11572;SDS011;5842;52.426;4.886;2023-03-23T09:04:40;11.63;;;3.67;;
11572;SDS011;5842;52.426;4.886;2023-03-23T09:07:08;13.00;;;3.63;;
11572;SDS011;5842;52.426;4.886;2023-03-23T09:09:37;9.27;;;3.03;;
11572;SDS011;5842;52.426;4.886;2023-03-23T09:12:05;10.17;;;3.07;;
11572;SDS011;5842;52.426;4.886;2023-03-23T09:14:33;11.53;;;3.63;;
11572;SDS011;5842;52.426;4.886;2023-03-23T09:17:01;11.43;;;3.43;;
11572;SDS011;5842;52.426;4.886;2023-03-23T09:19:29;9.80;;;3.30;;
11572;SDS011;5842;52.426;4.886;2023-03-23T09:21:59;11.77;;;3.63;;
11572;SDS011;5842;52.426;4.886;2023-03-23T09:24:27;13.37;;;3.77;;
11572;SDS011;5842;52.426;4.886;2023-03-23T09:26:55;16.10;;;4.27;;
11572;SDS011;5842;52.426;4.886;2023-03-23T09:29:23;15.37;;;3.60;;
11572;SDS011;5842;52.426;4.886;2023-03-23T09:31:51;14.87;;;4.00;;
11572;SDS011;5842;52.426;4.886;2023-03-23T09:34:19;12.93;;;4.07;;
11572;SDS011;5842;52.426;4.886;2023-03-23T09:36:49;12.33;;;3.87;;
11572;SDS011;5842;52.426;4.886;2023-03-23T09:39:18;11.73;;;3.50;;
11572;SDS011;5842;52.426;4.886;2023-03-23T09:41:54;14.27;;;3.70;;
11572;SDS011;5842;52.426;4.886;2023-03-23T09:44:26;13.70;;;3.30;;
11572;SDS011;5842;52.426;4.886;2023-03-23T09:46:58;15.83;;;3.90;;
11572;SDS011;5842;52.426;4.886;2023-03-23T09:49:29;13.60;;;3.93;;
11572;SDS011;5842;52.426;4.886;2023-03-23T09:52:00;14.77;;;3.63;;
11572;SDS011;5842;52.426;4.886;2023-03-23T09:54:31;13.03;;;3.40;;
11572;SDS011;5842;52.426;4.886;2023-03-23T09:57:02;15.20;;;3.63;;
11572;SDS011;5842;52.426;4.886;2023-03-23T09:59:34;14.63;;;3.70;;
11572;SDS011;5842;52.426;4.886;2023-03-23T10:02:09;14.33;;;3.20;;
11572;SDS011;5842;52.426;4.886;2023-03-23T10:04:40;16.33;;;4.20;;
11572;SDS011;5842;52.426;4.886;2023-03-23T10:07:12;14.20;;;3.37;;
11572;SDS011;5842;52.426;4.886;2023-03-23T10:09:43;16.23;;;3.97;;
11572;SDS011;5842;52.426;4.886;2023-03-23T10:12:15;13.87;;;3.43;;
11572;SDS011;5842;52.426;4.886;2023-03-23T10:14:48;14.57;;;3.90;;
11572;SDS011;5842;52.426;4.886;2023-03-23T10:17:18;14.87;;;3.80;;
11572;SDS011;5842;52.426;4.886;2023-03-23T10:19:50;16.30;;;4.23;;
11572;SDS011;5842;52.426;4.886;2023-03-23T10:22:20;15.03;;;3.50;;
11572;SDS011;5842;52.426;4.886;2023-03-23T10:24:52;13.77;;;4.07;;
11572;SDS011;5842;52.426;4.886;2023-03-23T10:27:23;20.20;;;4.30;;
11572;SDS011;5842;52.426;4.886;2023-03-23T10:29:52;17.97;;;4.03;;
11572;SDS011;5842;52.426;4.886;2023-03-23T10:32:21;16.67;;;4.00;;
11572;SDS011;5842;52.426;4.886;2023-03-23T10:34:50;16.03;;;4.20;;
11572;SDS011;5842;52.426;4.886;2023-03-23T10:37:20;13.20;;;3.23;;
11572;SDS011;5842;52.426;4.886;2023-03-23T10:39:49;12.97;;;3.63;;
11572;SDS011;5842;52.426;4.886;2023-03-23T10:42:26;15.07;;;3.87;;
11572;SDS011;5842;52.426;4.886;2023-03-23T10:44:54;15.93;;;3.50;;
11572;SDS011;5842;52.426;4.886;2023-03-23T10:47:22;13.83;;;3.37;;
11572;SDS011;5842;52.426;4.886;2023-03-23T10:49:50;16.20;;;3.70;;
11572;SDS011;5842;52.426;4.886;2023-03-23T10:52:24;17.63;;;3.57;;
11572;SDS011;5842;52.426;4.886;2023-03-23T10:54:54;17.90;;;3.93;;
11572;SDS011;5842;52.426;4.886;2023-03-23T10:57:23;18.07;;;3.77;;
11572;SDS011;5842;52.426;4.886;2023-03-23T10:59:57;13.70;;;3.47;;
11572;SDS011;5842;52.426;4.886;2023-03-23T11:02:24;17.33;;;3.87;;
11572;SDS011;5842;52.426;4.886;2023-03-23T11:04:56;15.90;;;3.83;;
11572;SDS011;5842;52.426;4.886;2023-03-23T11:07:27;13.40;;;3.53;;
11572;SDS011;5842;52.426;4.886;2023-03-23T11:09:55;13.07;;;3.20;;
11572;SDS011;5842;52.426;4.886;2023-03-23T11:12:24;19.77;;;3.77;;
11572;SDS011;5842;52.426;4.886;2023-03-23T11:15:02;12.47;;;3.60;;
11572;SDS011;5842;52.426;4.886;2023-03-23T11:17:30;17.07;;;3.77;;
11572;SDS011;5842;52.426;4.886;2023-03-23T11:19:58;16.23;;;4.10;;
11572;SDS011;5842;52.426;4.886;2023-03-23T11:22:37;16.67;;;3.97;;
11572;SDS011;5842;52.426;4.886;2023-03-23T11:25:08;17.70;;;4.07;;
11572;SDS011;5842;52.426;4.886;2023-03-23T11:27:37;14.63;;;3.20;;
11572;SDS011;5842;52.426;4.886;2023-03-23T11:30:10;12.80;;;3.73;;
11572;SDS011;5842;52.426;4.886;2023-03-23T11:32:42;12.13;;;3.57;;
11572;SDS011;5842;52.426;4.886;2023-03-23T11:35:14;18.03;;;3.87;;
11572;SDS011;5842;52.426;4.886;2023-03-23T11:37:43;18.47;;;4.23;;
11572;SDS011;5842;52.426;4.886;2023-03-23T11:40:14;18.57;;;3.93;;
11572;SDS011;5842;52.426;4.886;2023-03-23T11:42:43;17.57;;;4.00;;
11572;SDS011;5842;52.426;4.886;2023-03-23T11:45:17;12.33;;;3.73;;
11572;SDS011;5842;52.426;4.886;2023-03-23T11:47:56;16.43;;;4.07;;
11572;SDS011;5842;52.426;4.886;2023-03-23T11:50:26;15.57;;;4.10;;
11572;SDS011;5842;52.426;4.886;2023-03-23T11:52:57;21.10;;;3.57;;
11572;SDS011;5842;52.426;4.886;2023-03-23T11:55:30;18.97;;;3.60;;
11572;SDS011;5842;52.426;4.886;2023-03-23T11:58:00;14.53;;;4.17;;
11572;SDS011;5842;52.426;4.886;2023-03-23T12:00:32;17.53;;;4.83;;
11572;SDS011;5842;52.426;4.886;2023-03-23T12:05:48;14.43;;;3.90;;
11572;SDS011;5842;52.426;4.886;2023-03-23T12:11:00;14.37;;;3.80;;
11572;SDS011;5842;52.426;4.886;2023-03-23T12:13:34;13.80;;;3.93;;
11572;SDS011;5842;52.426;4.886;2023-03-23T12:16:09;14.53;;;3.97;;
11572;SDS011;5842;52.426;4.886;2023-03-23T12:18:45;11.80;;;3.30;;
11572;SDS011;5842;52.426;4.886;2023-03-23T12:21:16;10.90;;;3.20;;
11572;SDS011;5842;52.426;4.886;2023-03-23T12:23:47;15.70;;;3.77;;
11572;SDS011;5842;52.426;4.886;2023-03-23T12:26:18;15.87;;;3.43;;
11572;SDS011;5842;52.426;4.886;2023-03-23T12:28:55;13.00;;;3.47;;
11572;SDS011;5842;52.426;4.886;2023-03-23T12:31:28;11.07;;;3.33;;
11572;SDS011;5842;52.426;4.886;2023-03-23T12:33:59;14.33;;;3.20;;
11572;SDS011;5842;52.426;4.886;2023-03-23T12:36:35;12.00;;;3.03;;
11572;SDS011;5842;52.426;4.886;2023-03-23T12:39:25;12.63;;;3.10;;
11572;SDS011;5842;52.426;4.886;2023-03-23T12:41:59;12.40;;;3.03;;
11572;SDS011;5842;52.426;4.886;2023-03-23T12:44:31;11.17;;;3.57;;
11572;SDS011;5842;52.426;4.886;2023-03-23T12:49:46;11.00;;;3.40;;
11572;SDS011;5842;52.426;4.886;2023-03-23T12:52:15;13.07;;;3.47;;
11572;SDS011;5842;52.426;4.886;2023-03-23T12:54:45;12.00;;;3.10;;
11572;SDS011;5842;52.426;4.886;2023-03-23T12:57:19;11.10;;;3.73;;
11572;SDS011;5842;52.426;4.886;2023-03-23T12:59:48;9.77;;;2.87;;
11572;SDS011;5842;52.426;4.886;2023-03-23T13:02:18;10.80;;;3.10;;
11572;SDS011;5842;52.426;4.886;2023-03-23T13:04:50;13.33;;;3.10;;
11572;SDS011;5842;52.426;4.886;2023-03-23T13:07:20;13.10;;;3.20;;
11572;SDS011;5842;52.426;4.886;2023-03-23T13:09:53;11.93;;;3.13;;
11572;SDS011;5842;52.426;4.886;2023-03-23T13:12:21;12.13;;;3.30;;
11572;SDS011;5842;52.426;4.886;2023-03-23T13:14:53;14.13;;;3.37;;
11572;SDS011;5842;52.426;4.886;2023-03-23T13:17:24;10.87;;;3.70;;
11572;SDS011;5842;52.426;4.886;2023-03-23T13:19:59;10.80;;;3.63;;
11572;SDS011;5842;52.426;4.886;2023-03-23T13:22:30;13.57;;;3.47;;
11572;SDS011;5842;52.426;4.886;2023-03-23T13:25:00;9.90;;;2.87;;
11572;SDS011;5842;52.426;4.886;2023-03-23T13:27:29;11.83;;;3.40;;
11572;SDS011;5842;52.426;4.886;2023-03-23T13:29:57;10.67;;;3.17;;
11572;SDS011;5842;52.426;4.886;2023-03-23T13:32:29;13.77;;;3.50;;
11572;SDS011;5842;52.426;4.886;2023-03-23T13:35:01;12.37;;;3.17;;
11572;SDS011;5842;52.426;4.886;2023-03-23T13:37:30;13.57;;;3.33;;
11572;SDS011;5842;52.426;4.886;2023-03-23T13:40:11;11.03;;;3.20;;
11572;SDS011;5842;52.426;4.886;2023-03-23T13:42:47;10.77;;;2.80;;
11572;SDS011;5842;52.426;4.886;2023-03-23T13:45:19;12.83;;;3.03;;
11572;SDS011;5842;52.426;4.886;2023-03-23T13:47:47;13.73;;;3.43;;
11572;SDS011;5842;52.426;4.886;2023-03-23T13:50:26;11.50;;;3.10;;
11572;SDS011;5842;52.426;4.886;2023-03-23T13:52:57;19.70;;;3.87;;
11572;SDS011;5842;52.426;4.886;2023-03-23T13:55:41;15.43;;;3.23;;
11572;SDS011;5842;52.426;4.886;2023-03-23T13:58:20;18.60;;;6.53;;
11572;SDS011;5842;52.426;4.886;2023-03-23T14:00:49;16.37;;;3.93;;
11572;SDS011;5842;52.426;4.886;2023-03-23T14:03:18;12.77;;;3.63;;
11572;SDS011;5842;52.426;4.886;2023-03-23T14:05:49;16.73;;;3.70;;
11572;SDS011;5842;52.426;4.886;2023-03-23T14:08:24;14.63;;;3.77;;
11572;SDS011;5842;52.426;4.886;2023-03-23T14:11:09;16.40;;;4.17;;
11572;SDS011;5842;52.426;4.886;2023-03-23T14:13:39;14.70;;;3.53;;
11572;SDS011;5842;52.426;4.886;2023-03-23T14:16:13;13.47;;;3.97;;
11572;SDS011;5842;52.426;4.886;2023-03-23T14:18:42;16.43;;;3.97;;
11572;SDS011;5842;52.426;4.886;2023-03-23T14:21:17;12.10;;;3.57;;
11572;SDS011;5842;52.426;4.886;2023-03-23T14:23:48;13.70;;;3.83;;
11572;SDS011;5842;52.426;4.886;2023-03-23T14:26:17;16.33;;;3.63;;
11572;SDS011;5842;52.426;4.886;2023-03-23T14:28:45;13.23;;;3.47;;
11572;SDS011;5842;52.426;4.886;2023-03-23T14:31:16;12.40;;;3.70;;
11572;SDS011;5842;52.426;4.886;2023-03-23T14:33:45;15.90;;;3.77;;
11572;SDS011;5842;52.426;4.886;2023-03-23T14:36:15;14.20;;;3.50;;
11572;SDS011;5842;52.426;4.886;2023-03-23T14:38:46;14.57;;;3.60;;
11572;SDS011;5842;52.426;4.886;2023-03-23T14:41:14;11.80;;;3.10;;
11572;SDS011;5842;52.426;4.886;2023-03-23T14:43:42;15.47;;;3.37;;
11572;SDS011;5842;52.426;4.886;2023-03-23T14:46:10;12.20;;;3.37;;
11572;SDS011;5842;52.426;4.886;2023-03-23T14:48:39;14.47;;;3.83;;
11572;SDS011;5842;52.426;4.886;2023-03-23T14:51:07;13.07;;;3.20;;
11572;SDS011;5842;52.426;4.886;2023-03-23T14:53:44;12.17;;;3.00;;
11572;SDS011;5842;52.426;4.886;2023-03-23T14:56:13;12.33;;;3.40;;
11572;SDS011;5842;52.426;4.886;2023-03-23T14:58:43;12.80;;;3.73;;
11572;SDS011;5842;52.426;4.886;2023-03-23T15:01:12;18.83;;;4.17;;
11572;SDS011;5842;52.426;4.886;2023-03-23T15:03:41;12.77;;;3.70;;
11572;SDS011;5842;52.426;4.886;2023-03-23T15:06:10;13.80;;;3.80;;
11572;SDS011;5842;52.426;4.886;2023-03-23T15:08:39;15.77;;;4.37;;
11572;SDS011;5842;52.426;4.886;2023-03-23T15:11:13;14.40;;;4.20;;
11572;SDS011;5842;52.426;4.886;2023-03-23T15:13:48;13.53;;;3.47;;
11572;SDS011;5842;52.426;4.886;2023-03-23T15:16:18;20.47;;;4.10;;
11572;SDS011;5842;52.426;4.886;2023-03-23T15:18:48;20.20;;;4.87;;
11572;SDS011;5842;52.426;4.886;2023-03-23T15:21:22;17.00;;;4.10;;
11572;SDS011;5842;52.426;4.886;2023-03-23T15:23:50;18.87;;;4.93;;
11572;SDS011;5842;52.426;4.886;2023-03-23T15:26:27;24.40;;;4.53;;
11572;SDS011;5842;52.426;4.886;2023-03-23T15:29:01;20.03;;;4.70;;
11572;SDS011;5842;52.426;4.886;2023-03-23T15:31:30;16.70;;;4.13;;
11572;SDS011;5842;52.426;4.886;2023-03-23T15:33:59;17.73;;;4.57;;
11572;SDS011;5842;52.426;4.886;2023-03-23T15:36:31;18.93;;;4.17;;